АЭРОДРОМУУД

ICAO:
ZMCK
Нэр:
УЛААНБААТАР / ЧИНГИС ХААН
Ахц:
473849N 1064912E
030727 ZMUBYNYX
(A0005/22 NOTAMN
Q) ZMUB/QFAXX/IV/NBO/A /000/999/4738N10649E005
A) ZMCK B) 2201030727 C) PERM
E) VALIDITY OF AD CERTIFICATE EXTENDED TO 31 MAR 2022 REF AIP MONGOLIA AD 1.5)
- 3 weeks ago -
METAR
No records found.
TAF
TAF ZMCK 232250Z 2400/2409 VRB02MPS 9999 SCT100=
- 3 hours ago -
TAF ZMCK 232250Z 2400/2409 VRB02MPS 9999 SCT100=
- 3 hours ago -
TAF ZMCK 232238Z 2400/2506 VRB02MPS 9999 SCT100 TXM15/2407Z TNM26/2423Z=
- 3 hours ago -
TAF ZMCK 232238Z 2400/2506 VRB02MPS 9999 SCT100 TXM15/2407Z TNM26/2423Z=
- 3 hours ago -
TAF ZMCK 231950Z 2321/2406 VRB02MPS 6000 -SN SCT030 SCT080=
- 6 hours ago -
TAF ZMCK 231950Z 2321/2406 VRB02MPS 6000 -SN SCT030 SCT080=
- 6 hours ago -
TAF ZMCK 231630Z 2318/2424 VRB02MPS 6000 -SN BKN080 TNM20/2323Z TXM15/2407Z BECMG 2405/2407 9999 NSW SCT100=
- 9 hours ago -
TAF ZMCK 231630Z 2318/2424 VRB02MPS 6000 -SN BKN080 TNM20/2323Z TXM15/2407Z BECMG 2405/2407 9999 NSW SCT100=
- 9 hours ago -
TAF ZMCK 231038Z 2312/2418 VRB02MPS 6000 -SN BKN080 TNM19/2323Z TXM15/2407Z BECMG 2404/2406 9999 NSW SCT100=
- 15 hours ago -
TAF ZMCK 231038Z 2312/2418 VRB02MPS 6000 -SN BKN080 TNM19/2323Z TXM15/2407Z BECMG 2404/2406 9999 NSW SCT100=
- 15 hours ago -
TAF ZMCK 230440Z 2306/2412 VRB02MPS 6000 SN SCT030 BKN080 TXM11/2307Z TNM19/2323Z BECMG 2403/2405 9999 NSW SCT033 SCT100=
- 21 hours ago -
TAF ZMCK 230440Z 2306/2412 VRB02MPS 6000 SN SCT030 BKN080 TXM11/2307Z TNM19/2323Z BECMG 2403/2405 9999 NSW SCT033 SCT100=
- 21 hours ago -
TAF ZMCK 222240Z 2300/2406 VBR02MPS 6000 SN SCT030 BKN080 TXM10/2307Z TNM19/2323Z TEMPO 2300/2313 3000 TEMPO 2319/2406 3000 BECMG 2400/2402 31006MPS=
- 1 day ago -
TAF ZMCK 222240Z 2300/2406 VBR02MPS 6000 SN SCT030 BKN080 TXM10/2307Z TNM19/2323Z TEMPO 2300/2313 3000 TEMPO 2319/2406 3000 BECMG 2400/2402 31006MPS=
- 1 day ago -
TAF ZMCK 221603Z 2218/2324 10007MPS 6000 SN SCT030 BKN080 TNM18/2223Z TXM10/2307Z TEMPO 2300/2313 3000 BECMG 2302/2304 VRB02MPS=
- 1 day ago -
TAF ZMCK 221603Z 2218/2324 10007MPS 6000 SN SCT030 BKN080 TNM18/2223Z TXM10/2307Z TEMPO 2300/2313 3000 BECMG 2302/2304 VRB02MPS=
- 1 day ago -